createdAt,value
2019-01-05T00:00:29.350Z,14.30
2019-01-05T00:03:08.267Z,26.97
2019-01-05T00:05:47.509Z,17.50
2019-01-05T00:08:17.558Z,26.30
2019-01-05T00:10:47.609Z,8.40
2019-01-05T00:13:20.547Z,6.17
2019-01-05T00:15:54.476Z,4.67
2019-01-05T00:18:41.340Z,11.33
2019-01-05T00:21:25.147Z,9.87
2019-01-05T00:24:01.285Z,10.23
2019-01-05T00:26:49.973Z,4.17
2019-01-05T00:29:34.993Z,6.53
2019-01-05T00:32:13.803Z,6.60
2019-01-05T00:35:00.876Z,5.90
2019-01-05T00:37:34.751Z,9.70
2019-01-05T00:40:17.678Z,11.40
2019-01-05T00:42:49.172Z,13.17
2019-01-05T00:45:21.928Z,16.70
2019-01-05T00:47:54.873Z,15.73
2019-01-05T00:50:30.184Z,11.33
2019-01-05T00:53:04.029Z,8.67
2019-01-05T00:55:36.887Z,8.63
2019-01-05T00:58:23.331Z,10.90
2019-01-05T01:00:56.533Z,17.33
2019-01-05T01:03:42.226Z,15.00
2019-01-05T01:06:18.117Z,22.33
2019-01-05T01:09:03.296Z,24.33
2019-01-05T01:11:39.272Z,27.27
2019-01-05T01:14:21.173Z,14.47
2019-01-05T01:17:07.520Z,25.00
2019-01-05T01:19:53.999Z,23.97
2019-01-05T01:22:24.040Z,35.73
2019-01-05T01:24:59.878Z,20.93
2019-01-05T01:27:30.403Z,11.53
2019-01-05T01:30:06.477Z,30.13
2019-01-05T01:32:52.607Z,12.50
2019-01-05T01:35:22.709Z,29.47
2019-01-05T01:38:31.781Z,14.03
2019-01-05T01:41:10.604Z,16.90
2019-01-05T01:43:46.688Z,9.73
2019-01-05T01:46:21.128Z,28.93
2019-01-05T01:48:54.837Z,18.57
2019-01-05T01:51:35.036Z,17.60
2019-01-05T01:54:23.526Z,17.37
2019-01-05T01:56:54.015Z,15.83
2019-01-05T01:59:33.141Z,18.43
2019-01-05T02:02:08.569Z,19.03
2019-01-05T02:04:44.815Z,11.73
2019-01-05T02:07:15.916Z,23.87
2019-01-05T02:09:51.476Z,17.57
2019-01-05T02:12:23.969Z,11.77
2019-01-05T02:14:55.377Z,12.10
2019-01-05T02:17:28.728Z,7.13
2019-01-05T02:20:13.591Z,22.60
2019-01-05T02:23:04.748Z,11.17
2019-01-05T02:25:55.624Z,11.40
2019-01-05T02:28:28.744Z,16.77
2019-01-05T02:31:25.409Z,22.63
2019-01-05T02:34:13.430Z,14.60
2019-01-05T02:37:14.812Z,17.53
2019-01-05T02:40:09.867Z,12.27
2019-01-05T02:43:11.832Z,12.87
2019-01-05T02:46:13.412Z,13.40
2019-01-05T02:49:11.685Z,10.27
2019-01-05T02:52:12.097Z,11.90
2019-01-05T02:55:18.202Z,19.50
2019-01-05T02:58:09.040Z,9.43
2019-01-05T03:00:47.403Z,10.70
2019-01-05T03:03:49.053Z,10.30
2019-01-05T03:06:59.462Z,13.40
2019-01-05T03:09:47.568Z,5.67
2019-01-05T03:12:51.714Z,18.37
2019-01-05T03:15:55.804Z,8.80
2019-01-05T03:19:13.300Z,17.50
2019-01-05T03:22:20.549Z,9.90
2019-01-05T03:24:56.384Z,10.03
2019-01-05T03:27:35.576Z,10.67
2019-01-05T03:30:14.032Z,5.13
2019-01-05T03:32:58.907Z,14.20
2019-01-05T03:35:54.207Z,9.40
2019-01-05T03:38:50.326Z,12.67
2019-01-05T03:42:05.693Z,8.23
2019-01-05T03:44:58.100Z,6.43
2019-01-05T03:48:04.296Z,9.00
2019-01-05T03:51:16.574Z,7.97
2019-01-05T03:54:18.450Z,14.27
2019-01-05T03:56:57.542Z,7.17
2019-01-05T03:59:51.621Z,9.57
2019-01-05T04:02:57.988Z,12.27
2019-01-05T04:05:56.491Z,2.50
2019-01-05T04:09:00.944Z,10.40
2019-01-05T04:11:56.694Z,4.73
2019-01-05T04:14:47.607Z,4.97
2019-01-05T04:17:49.234Z,14.97
2019-01-05T04:20:47.440Z,7.57
2019-01-05T04:24:01.812Z,4.73
2019-01-05T04:26:56.176Z,8.50
2019-01-05T04:29:31.937Z,4.80
2019-01-05T04:32:37.629Z,8.67
2019-01-05T04:35:25.645Z,6.03
2019-01-05T04:38:27.270Z,18.70
2019-01-05T04:41:12.124Z,10.10
2019-01-05T04:43:50.890Z,5.10
2019-01-05T04:46:54.086Z,9.10
2019-01-05T04:50:05.221Z,12.90
2019-01-05T04:52:57.811Z,6.63
2019-01-05T04:55:55.816Z,12.63
2019-01-05T04:58:54.240Z,6.67
2019-01-05T05:01:56.689Z,9.03
2019-01-05T05:05:02.312Z,7.60
2019-01-05T05:07:55.740Z,9.30
2019-01-05T05:10:40.898Z,13.23
2019-01-05T05:13:25.752Z,15.80
2019-01-05T05:15:58.879Z,8.37
2019-01-05T05:18:34.682Z,4.47
2019-01-05T05:21:30.362Z,4.37
2019-01-05T05:24:12.256Z,12.73
2019-01-05T05:27:10.940Z,9.67
2019-01-05T05:30:20.124Z,12.10
2019-01-05T05:33:30.971Z,11.90
2019-01-05T05:36:32.839Z,5.00
2019-01-05T05:39:28.297Z,10.03
2019-01-05T05:42:37.548Z,8.00
2019-01-05T05:45:41.564Z,18.00
2019-01-05T05:48:42.974Z,11.03
2019-01-05T05:51:25.039Z,19.77
2019-01-05T05:54:31.177Z,9.60
2019-01-05T05:57:33.073Z,14.20
2019-01-05T06:00:29.860Z,7.73
2019-01-05T06:03:23.456Z,6.27
2019-01-05T06:06:36.828Z,11.73
2019-01-05T06:09:12.596Z,6.70
2019-01-05T06:12:00.604Z,7.77
2019-01-05T06:14:51.333Z,9.07
2019-01-05T06:17:36.213Z,10.33
2019-01-05T06:20:29.712Z,7.43
2019-01-05T06:23:25.265Z,6.83
2019-01-05T06:26:29.728Z,8.03
2019-01-05T06:29:21.717Z,6.13
2019-01-05T06:32:37.044Z,7.67
2019-01-05T06:35:39.548Z,7.17
2019-01-05T06:38:21.308Z,9.73
2019-01-05T06:41:35.936Z,7.03
2019-01-05T06:44:35.904Z,6.60
2019-01-05T06:47:35.112Z,6.83
2019-01-05T06:50:42.956Z,8.37
2019-01-05T06:53:50.440Z,18.53
2019-01-05T06:56:59.564Z,4.37
2019-01-05T07:00:10.116Z,11.07
2019-01-05T07:03:15.594Z,14.13
2019-01-05T07:06:34.718Z,11.93
2019-01-05T07:09:36.506Z,9.73
2019-01-05T07:12:51.745Z,9.33
2019-01-05T07:15:52.136Z,16.47
2019-01-05T07:18:36.375Z,12.03
2019-01-05T07:21:17.671Z,19.40
2019-01-05T07:24:09.948Z,10.97
2019-01-05T07:27:07.032Z,11.67
2019-01-05T07:30:31.572Z,12.33
2019-01-05T07:33:32.960Z,14.07
2019-01-05T07:36:20.900Z,19.60
2019-01-05T07:39:19.039Z,21.07
2019-01-05T07:42:19.063Z,23.97
2019-01-05T07:45:11.264Z,19.13
2019-01-05T07:48:32.300Z,20.40
2019-01-05T07:51:38.073Z,16.40
2019-01-05T07:58:01.165Z,15.40
2019-01-05T08:00:37.190Z,10.43
2019-01-05T08:03:41.952Z,14.70
2019-01-05T08:06:36.608Z,14.90
2019-01-05T08:09:18.226Z,19.47
2019-01-05T08:12:14.068Z,15.37
2019-01-05T08:15:14.216Z,19.30
2019-01-05T08:17:59.272Z,18.60
2019-01-05T08:21:12.986Z,23.17
2019-01-05T08:24:19.009Z,25.43
2019-01-05T08:27:24.662Z,26.20
2019-01-05T08:30:19.440Z,16.60
2019-01-05T08:33:45.469Z,19.60
2019-01-05T08:36:47.140Z,15.47
2019-01-05T08:39:59.206Z,16.17
2019-01-05T08:43:20.823Z,20.77
2019-01-05T08:46:39.250Z,26.63
2019-01-05T08:49:30.340Z,21.03
2019-01-05T08:52:21.106Z,20.13
2019-01-05T08:55:31.470Z,21.50
2019-01-05T08:58:37.780Z,14.73
2019-01-05T09:02:00.636Z,19.57
2019-01-05T09:04:42.471Z,24.40
2019-01-05T09:08:05.368Z,25.47
2019-01-05T09:11:07.214Z,24.77
2019-01-05T09:14:11.857Z,20.90
2019-01-05T09:17:06.005Z,25.63
2019-01-05T09:19:59.864Z,24.00
2019-01-05T09:22:48.247Z,29.00
2019-01-05T09:25:27.385Z,29.70
2019-01-05T09:28:18.377Z,25.97
2019-01-05T09:31:42.535Z,40.33
2019-01-05T09:34:44.480Z,27.90
2019-01-05T09:37:38.398Z,27.43
2019-01-05T09:40:37.055Z,22.80
2019-01-05T09:43:25.080Z,24.50
2019-01-05T09:46:26.769Z,16.83
2019-01-05T09:49:24.097Z,21.67
2019-01-05T09:52:45.389Z,25.30
2019-01-05T09:55:32.636Z,36.17
2019-01-05T09:58:08.436Z,19.00
2019-01-05T10:01:26.745Z,21.10
2019-01-05T10:04:23.708Z,33.50
2019-01-05T10:07:19.403Z,20.17
2019-01-05T10:13:31.588Z,33.43
2019-01-05T10:16:21.390Z,30.23
2019-01-05T10:22:44.715Z,23.70
2019-01-05T10:25:34.975Z,29.97
2019-01-05T10:28:40.209Z,22.23
2019-01-05T10:31:31.324Z,28.07
2019-01-05T10:34:22.427Z,28.03
2019-01-05T10:37:25.916Z,28.57
2019-01-05T10:40:31.170Z,33.77
2019-01-05T10:43:46.128Z,47.40
2019-01-05T10:46:28.093Z,28.63
2019-01-05T10:49:38.218Z,29.03
2019-01-05T10:52:38.465Z,32.43
2019-01-05T10:55:44.891Z,35.90
2019-01-05T10:58:52.667Z,33.30
2019-01-05T11:01:49.583Z,22.20
2019-01-05T11:04:37.260Z,29.27
2019-01-05T11:07:32.745Z,37.17
2019-01-05T11:10:50.551Z,32.33
2019-01-05T11:14:07.397Z,22.53
2019-01-05T11:16:57.840Z,33.60
2019-01-05T11:19:42.907Z,23.37
2019-01-05T11:22:24.606Z,33.57
2019-01-05T11:25:47.313Z,32.67
2019-01-05T11:28:53.462Z,36.40
2019-01-05T11:31:29.317Z,26.37
2019-01-05T11:34:13.661Z,29.70
2019-01-05T11:37:14.748Z,35.90
2019-01-05T11:40:17.415Z,40.93
2019-01-05T11:43:16.225Z,36.97
2019-01-05T11:46:04.091Z,43.87
2019-01-05T11:49:00.620Z,41.67
2019-01-05T11:51:36.388Z,34.83
2019-01-05T11:54:15.453Z,32.17
2019-01-05T11:57:03.208Z,30.73
2019-01-05T11:59:54.058Z,29.63
2019-01-05T12:02:35.716Z,40.70
2019-01-05T12:05:40.168Z,39.47
2019-01-05T12:08:41.944Z,36.10
2019-01-05T12:11:31.799Z,43.17
2019-01-05T12:14:33.433Z,33.00
2019-01-05T12:17:23.920Z,31.77
2019-01-05T12:20:25.454Z,35.63
2019-01-05T12:23:26.966Z,31.50
2019-01-05T12:26:22.724Z,42.53
2019-01-05T12:29:24.327Z,35.30
2019-01-05T12:32:06.423Z,41.60
2019-01-05T12:35:02.450Z,53.23
2019-01-05T12:38:09.952Z,46.80
2019-01-05T12:40:55.132Z,39.73
2019-01-05T12:43:40.446Z,34.50
2019-01-05T12:46:52.064Z,34.33
2019-01-05T12:49:53.653Z,43.17
2019-01-05T12:52:59.837Z,55.87
2019-01-05T12:55:49.532Z,38.23
2019-01-05T12:58:45.298Z,45.80
2019-01-05T13:02:08.553Z,31.97
2019-01-05T13:05:19.176Z,36.40
2019-01-05T13:08:17.357Z,44.47
2019-01-05T13:11:08.730Z,41.40
2019-01-05T13:14:12.902Z,46.53
2019-01-05T13:17:15.688Z,43.30
2019-01-05T13:19:57.756Z,45.90
2019-01-05T13:22:45.761Z,45.63
2019-01-05T13:25:33.391Z,32.63
2019-01-05T13:28:22.965Z,43.53
2019-01-05T13:31:36.910Z,48.23
2019-01-05T13:34:12.669Z,52.67
2019-01-05T13:37:03.596Z,54.13
2019-01-05T13:40:16.120Z,36.57
2019-01-05T13:43:22.622Z,43.37
2019-01-05T13:46:13.772Z,51.70
2019-01-05T13:49:14.011Z,38.83
2019-01-05T13:52:17.128Z,56.33
2019-01-05T13:55:06.603Z,42.60
2019-01-05T13:57:54.902Z,36.30
2019-01-05T14:00:24.943Z,51.23
2019-01-05T14:03:06.778Z,36.53
2019-01-05T14:05:55.108Z,46.33
2019-01-05T14:08:41.544Z,31.07
2019-01-05T14:11:23.760Z,51.20
2019-01-05T14:13:53.818Z,41.23
2019-01-05T14:16:40.159Z,52.57
2019-01-05T14:19:26.782Z,36.83
2019-01-05T14:22:05.600Z,36.50
2019-01-05T14:24:35.668Z,35.73
2019-01-05T14:27:11.796Z,27.83
2019-01-05T14:29:44.928Z,48.67
2019-01-05T14:32:23.934Z,44.00
2019-01-05T14:35:10.568Z,50.93
2019-01-05T14:37:52.808Z,48.17
2019-01-05T14:40:37.737Z,32.50
2019-01-05T14:43:16.641Z,50.10
2019-01-05T14:46:04.869Z,44.60
2019-01-05T14:48:37.540Z,34.53
2019-01-05T14:51:16.377Z,47.27
2019-01-05T14:53:52.384Z,29.17
2019-01-05T14:56:37.728Z,27.03
2019-01-05T14:59:16.600Z,34.10
2019-01-05T15:01:46.673Z,35.77
2019-01-05T15:04:19.408Z,40.17
2019-01-05T15:07:04.668Z,48.33
2019-01-05T15:09:34.720Z,36.97
2019-01-05T15:12:16.907Z,55.97
2019-01-05T15:14:46.980Z,43.90
2019-01-05T15:17:33.224Z,27.90
2019-01-05T15:20:22.673Z,44.40
2019-01-05T15:22:55.663Z,35.43
2019-01-05T15:25:28.717Z,45.20
2019-01-05T15:28:14.952Z,50.27
2019-01-05T15:30:45.004Z,36.87
2019-01-05T15:33:29.909Z,48.97
2019-01-05T15:36:11.850Z,30.53
2019-01-05T15:38:47.600Z,37.53
2019-01-05T15:41:17.837Z,46.47
2019-01-05T15:44:00.108Z,51.40
2019-01-05T15:46:46.670Z,53.10
2019-01-05T15:49:28.911Z,54.27
2019-01-05T15:51:58.960Z,41.43
2019-01-05T15:54:29.007Z,37.93
2019-01-05T15:57:05.055Z,42.43
2019-01-05T15:59:38.053Z,40.80
2019-01-05T16:02:10.986Z,37.37
2019-01-05T16:04:48.004Z,55.53
2019-01-05T16:07:18.052Z,48.20
2019-01-05T16:10:00.213Z,46.37
2019-01-05T16:12:46.744Z,43.50
2019-01-05T16:15:22.752Z,47.93
2019-01-05T16:18:08.707Z,35.70
2019-01-05T16:20:41.785Z,49.93
2019-01-05T16:23:26.904Z,34.80
2019-01-05T16:25:59.602Z,44.77
2019-01-05T16:28:32.326Z,58.60
2019-01-05T16:31:02.358Z,45.40
2019-01-05T16:33:48.810Z,47.50
2019-01-05T16:36:19.008Z,51.57
2019-01-05T16:39:05.469Z,28.90
2019-01-05T16:41:44.684Z,39.20
2019-01-05T16:44:20.840Z,39.37
2019-01-05T16:46:55.163Z,38.53
2019-01-05T16:49:37.272Z,38.87
2019-01-05T16:52:10.485Z,48.67
2019-01-05T16:54:46.604Z,30.90
2019-01-05T16:57:31.648Z,37.63
2019-01-05T17:00:07.396Z,32.13
2019-01-05T17:02:37.450Z,37.47
2019-01-05T17:05:16.476Z,37.73
2019-01-05T17:07:55.395Z,35.23
2019-01-05T17:10:43.672Z,32.63
2019-01-05T17:13:13.728Z,42.10
2019-01-05T17:16:00.236Z,39.17
2019-01-05T17:18:36.284Z,35.07
2019-01-05T17:21:22.774Z,42.23
2019-01-05T17:24:09.400Z,40.97
2019-01-05T17:26:39.432Z,35.60
2019-01-05T17:29:21.215Z,37.60
2019-01-05T17:32:07.425Z,38.30
2019-01-05T17:34:43.469Z,45.87
2019-01-05T17:37:31.781Z,45.03
2019-01-05T17:40:01.832Z,52.33
2019-01-05T17:42:48.060Z,31.13
2019-01-05T17:45:18.113Z,30.77
2019-01-05T17:48:00.428Z,26.90
2019-01-05T17:50:34.450Z,45.60
2019-01-05T17:53:10.558Z,33.00
2019-01-05T17:55:55.700Z,39.73
2019-01-05T17:58:31.654Z,44.80
2019-01-05T18:01:16.654Z,57.70
2019-01-05T18:03:52.231Z,46.90
2019-01-05T18:06:25.083Z,57.73
2019-01-05T18:09:11.775Z,45.47
2019-01-05T18:11:41.916Z,37.60
2019-01-05T18:14:14.906Z,43.27
2019-01-05T18:16:54.131Z,41.20
2019-01-05T18:19:40.381Z,43.73
2019-01-05T18:22:26.848Z,54.60
2019-01-05T18:25:02.894Z,51.63
2019-01-05T18:27:48.152Z,49.53
2019-01-05T18:30:36.579Z,32.07
2019-01-05T18:33:12.532Z,58.83
2019-01-05T18:35:51.518Z,43.97
2019-01-05T18:38:27.474Z,60.23
2019-01-05T18:41:00.648Z,36.30
2019-01-05T18:43:33.341Z,46.23
2019-01-05T18:46:19.835Z,39.67
2019-01-05T18:48:58.903Z,79.23
2019-01-05T18:51:28.948Z,28.57
2019-01-05T18:54:14.169Z,50.03
2019-01-05T18:56:44.237Z,40.73
2019-01-05T18:59:16.963Z,61.60
2019-01-05T19:02:04.993Z,43.73
2019-01-05T19:04:50.255Z,39.63
2019-01-05T19:07:36.421Z,50.07
2019-01-05T19:10:25.678Z,42.90
2019-01-05T19:12:58.672Z,68.07
2019-01-05T19:15:28.792Z,42.50
2019-01-05T19:18:07.740Z,55.87
2019-01-05T19:20:53.990Z,53.60
2019-01-05T19:23:24.262Z,45.73
2019-01-05T19:26:10.463Z,65.50
2019-01-05T19:28:46.620Z,56.63
2019-01-05T19:31:19.361Z,42.53
2019-01-05T19:34:04.379Z,63.87
2019-01-05T19:36:46.362Z,55.60
2019-01-05T19:39:16.549Z,59.20
2019-01-05T19:41:55.841Z,56.13
2019-01-05T19:44:42.297Z,51.93
2019-01-05T19:47:28.808Z,49.23
2019-01-05T19:50:05.062Z,101.50
2019-01-05T19:52:35.120Z,44.97
2019-01-05T19:55:05.336Z,48.10
2019-01-05T19:57:35.393Z,60.70
2019-01-05T20:00:22.869Z,49.23
2019-01-05T20:03:04.989Z,68.03
2019-01-05T20:05:46.984Z,58.27
2019-01-05T20:08:28.761Z,58.77
2019-01-05T20:11:14.772Z,57.30
2019-01-05T20:14:02.881Z,84.33
2019-01-05T20:16:40.884Z,74.83
2019-01-05T20:19:13.413Z,73.30
2019-01-05T20:21:43.448Z,68.30
2019-01-05T20:24:22.587Z,58.90
2019-01-05T20:27:04.393Z,50.50
2019-01-05T20:29:43.303Z,54.37
2019-01-05T20:32:16.248Z,54.27
2019-01-05T20:34:47.588Z,65.33
2019-01-05T20:37:20.535Z,60.87
2019-01-05T20:39:53.286Z,73.17
2019-01-05T20:42:39.766Z,54.83
2019-01-05T20:45:12.933Z,59.53
2019-01-05T20:47:59.097Z,56.10
2019-01-05T20:50:29.148Z,56.40
2019-01-05T20:53:02.104Z,63.03
2019-01-05T20:55:48.406Z,63.13
2019-01-05T20:58:27.344Z,57.20
2019-01-05T21:01:03.376Z,74.23
2019-01-05T21:03:39.374Z,78.00
2019-01-05T21:06:25.651Z,85.83
2019-01-05T21:09:01.760Z,80.43
2019-01-05T21:11:40.894Z,73.30
2019-01-05T21:14:10.933Z,71.50
2019-01-05T21:16:50.017Z,75.27
2019-01-05T21:19:26.090Z,66.60
2019-01-05T21:21:58.696Z,53.23
2019-01-05T21:24:31.573Z,56.60
2019-01-05T21:27:17.756Z,58.03
2019-01-05T21:29:47.815Z,80.07
2019-01-05T21:32:23.748Z,65.57
2019-01-05T21:34:56.597Z,62.47
2019-01-05T21:37:26.742Z,63.03
2019-01-05T21:39:56.782Z,84.97
2019-01-05T21:42:44.743Z,71.47
2019-01-05T21:45:23.488Z,53.47
2019-01-05T21:47:56.456Z,53.40
2019-01-05T21:50:42.968Z,49.20
2019-01-05T21:53:28.889Z,66.53
2019-01-05T21:55:58.946Z,70.07
2019-01-05T21:58:45.441Z,66.77
2019-01-05T22:01:15.492Z,91.40
2019-01-05T22:03:51.364Z,68.23
2019-01-05T22:06:36.595Z,68.40
2019-01-05T22:09:11.556Z,61.90
2019-01-05T22:11:42.885Z,70.33
2019-01-05T22:14:21.904Z,78.07
2019-01-05T22:16:54.752Z,65.43
2019-01-05T22:19:43.059Z,75.57
2019-01-05T22:22:13.204Z,92.40
2019-01-05T22:24:43.398Z,103.10
2019-01-05T22:27:28.443Z,72.97
2019-01-05T22:29:58.576Z,90.57
2019-01-05T22:32:28.829Z,71.37
2019-01-05T22:34:59.031Z,72.50
2019-01-05T22:37:32.130Z,79.03
2019-01-05T22:40:11.337Z,112.10
2019-01-05T22:42:42.936Z,95.40
2019-01-05T22:45:15.901Z,81.03
2019-01-05T22:47:48.834Z,66.77
2019-01-05T22:50:36.867Z,71.67
2019-01-05T22:53:10.090Z,64.33
2019-01-05T22:55:45.878Z,95.37
2019-01-05T22:58:28.060Z,74.83
2019-01-05T23:01:07.315Z,56.57
2019-01-05T23:03:37.548Z,79.00
2019-01-05T23:06:07.661Z,93.33
2019-01-05T23:08:50.140Z,47.17
2019-01-05T23:11:22.928Z,56.13
2019-01-05T23:13:53.027Z,39.90
2019-01-05T23:16:35.292Z,48.13
2019-01-05T23:19:21.487Z,45.70
2019-01-05T23:21:51.529Z,43.43
2019-01-05T23:24:21.579Z,46.60
2019-01-05T23:27:07.737Z,41.30
2019-01-05T23:29:37.936Z,42.20
2019-01-05T23:32:08.068Z,41.40
2019-01-05T23:34:38.258Z,41.13
2019-01-05T23:37:14.268Z,30.50
2019-01-05T23:39:44.320Z,28.60
2019-01-05T23:42:17.470Z,33.83
2019-01-05T23:44:47.530Z,31.20
2019-01-05T23:47:23.059Z,30.17
2019-01-05T23:49:53.209Z,32.47
2019-01-05T23:52:29.480Z,29.57
2019-01-05T23:55:15.849Z,25.03
2019-01-05T23:57:51.864Z,20.73
